Terminal Aerodrome Forecast
Issued by NWS

Home | Current Version | Previous Version | Text Only | Print | Product List | Glossary On
Versions: 1 2 3 4 5 6 7 8 9 10 11 12 13 14
000
FTUS45 KREV 102341
TAFCXP
TAF
KCXP 102341Z 1100/1124 25009KT P6SM -RA SCT028 OVC040
      TEMPO 1100/1103 5SM RA BR BKN025
     FM110300 28011G18KT P6SM VCSH SCT040 BKN080
     FM110500 30007KT P6SM SCT040 BKN100=

USA.gov is the U.S. government's official web portal to all federal, state and local government web resources and services.